Time;durP1;ratioP1;P1;durP2;ratioP2;P2;SDS_P1;SDS_P2;PMS_P1;PMS_P2;Temp;Humidity;BMP_temperature;BMP_pressure;BME280_temperature;BME280_humidity;BME280_pressure;Samples;Min_cycle;Max_cycle;Signal;HPM_P1;HPM_P2
2022/03/11 00:00:04;;;;;;;1.80;0.30;;;28.60;83.60;;;;;;4928424;28;20032;-77
2022/03/11 00:02:34;;;;;;;1.92;0.40;;;28.70;86.40;;;;;;4932758;29;20032;-78
2022/03/11 00:05:02;;;;;;;4.07;0.50;;;28.80;86.70;;;;;;4932399;29;20027;-76
2022/03/11 00:07:30;;;;;;;3.10;0.52;;;29.10;84.10;;;;;;4922870;29;20051;-76
2022/03/11 00:09:57;;;;;;;3.33;0.60;;;29.30;83.80;;;;;;4924315;29;20031;-75
2022/03/11 00:12:25;;;;;;;4.65;0.60;;;29.10;82.40;;;;;;4925082;28;20031;-77
2022/03/11 00:14:52;;;;;;;1.70;0.40;;;29.40;85.10;;;;;;4928652;28;20036;-76
2022/03/11 00:17:20;;;;;;;5.60;0.60;;;29.80;84.30;;;;;;4927581;29;20035;-76
2022/03/11 00:19:47;;;;;;;2.00;0.47;;;30.40;83.70;;;;;;4926537;29;20031;-79
2022/03/11 00:22:14;;;;;;;2.58;0.60;;;30.50;81.60;;;;;;4932019;28;20106;-76
2022/03/11 00:24:42;;;;;;;2.58;0.40;;;30.50;81.60;;;;;;4930882;29;20395;-81
2022/03/11 00:27:09;;;;;;;0.80;0.20;;;29.50;82.20;;;;;;4932358;29;20055;-74
2022/03/11 00:29:36;;;;;;;4.47;0.40;;;29.00;82.60;;;;;;4926501;29;20054;-77
2022/03/11 00:32:04;;;;;;;3.97;0.25;;;28.70;83.00;;;;;;4928969;29;20035;-75
2022/03/11 00:34:31;;;;;;;1.50;0.38;;;28.10;83.40;;;;;;4927472;29;20478;-76
2022/03/11 00:36:59;;;;;;;3.08;0.40;;;27.40;86.10;;;;;;4921704;29;20036;-76
2022/03/11 00:39:27;;;;;;;1.85;0.30;;;27.30;85.80;;;;;;4950223;28;20888;-76
2022/03/11 00:41:55;;;;;;;3.85;0.52;;;27.40;83.80;;;;;;4922959;29;20032;-77
2022/03/11 00:44:22;;;;;;;2.03;0.30;;;27.50;83.60;;;;;;4911281;28;20063;-77
2022/03/11 00:46:50;;;;;;;2.30;0.40;;;27.60;83.50;;;;;;4921248;29;20063;-77
2022/03/11 00:49:17;;;;;;;1.25;0.40;;;27.90;84.60;;;;;;4920741;29;20035;-77
2022/03/11 00:51:45;;;;;;;2.40;0.38;;;28.30;82.60;;;;;;4924134;29;20038;-75
2022/03/11 00:54:12;;;;;;;1.83;0.30;;;28.60;81.50;;;;;;4927326;29;20470;-77
2022/03/11 00:56:42;;;;;;;3.33;0.45;;;28.80;81.10;;;;;;4928971;28;20108;-80
2022/03/11 00:59:10;;;;;;;0.82;0.25;;;28.80;80.30;;;;;;4926362;29;20036;-76
2022/03/11 01:01:37;;;;;;;2.40;0.57;;;28.70;78.80;;;;;;4927663;29;20604;-75
2022/03/11 01:04:05;;;;;;;2.42;0.50;;;29.10;83.20;;;;;;4925185;29;20048;-76
2022/03/11 01:06:32;;;;;;;1.30;0.30;;;29.20;81.60;;;;;;4925508;29;20031;-75
2022/03/11 01:08:59;;;;;;;3.95;0.60;;;29.50;83.00;;;;;;4927325;29;20023;-77
2022/03/11 01:11:27;;;;;;;3.40;0.70;;;29.70;80.90;;;;;;4926590;29;20026;-76
2022/03/11 01:13:54;;;;;;;2.42;0.30;;;29.60;79.60;;;;;;4925687;29;20104;-74
2022/03/11 01:16:23;;;;;;;3.17;0.70;;;30.00;80.10;;;;;;4928341;29;20047;-75
2022/03/11 01:18:50;;;;;;;1.27;0.40;;;30.30;80.10;;;;;;4925030;28;20038;-75
2022/03/11 01:21:18;;;;;;;2.38;0.40;;;30.10;79.80;;;;;;4924538;29;20121;-75
2022/03/11 01:23:46;;;;;;;3.20;0.47;;;29.90;80.00;;;;;;4927390;28;20125;-75
2022/03/11 01:26:13;;;;;;;3.42;0.55;;;29.70;78.30;;;;;;4927626;29;20028;-75
2022/03/11 01:28:42;;;;;;;5.45;0.82;;;30.10;78.60;;;;;;4925657;29;20039;-77
2022/03/11 01:31:13;;;;;;;2.58;0.40;;;30.30;77.10;;;;;;4925586;29;20035;-75
2022/03/11 01:33:42;;;;;;;1.63;0.50;;;29.60;77.90;;;;;;4926806;29;20028;-77
2022/03/11 01:36:11;;;;;;;2.88;0.68;;;28.90;79.10;;;;;;4924417;29;20099;-74
2022/03/11 01:38:39;;;;;;;2.70;0.32;;;28.50;79.60;;;;;;4925162;29;20498;-77
2022/03/11 01:41:07;;;;;;;0.93;0.50;;;28.90;79.50;;;;;;4926029;29;20131;-75
2022/03/11 01:43:54;;;;;;;4.03;0.45;;;29.30;78.10;;;;;;4927339;29;20059;-75
2022/03/11 01:46:21;;;;;;;2.90;0.30;;;29.70;81.50;;;;;;4928486;28;20039;-76
2022/03/11 01:48:49;;;;;;;2.45;0.52;;;30.20;79.80;;;;;;4925934;28;20028;-80
2022/03/11 01:51:17;;;;;;;4.68;0.60;;;30.30;77.50;;;;;;4932174;29;20067;-77
2022/03/11 01:53:45;;;;;;;2.70;0.50;;;30.50;79.30;;;;;;4932706;29;20055;-77
2022/03/11 01:56:14;;;;;;;3.10;0.50;;;30.50;79.00;;;;;;4930227;29;20023;-78
2022/03/11 01:58:52;;;;;;;5.75;0.63;;;29.80;78.40;;;;;;4930061;29;20035;-77
2022/03/11 02:01:21;;;;;;;3.20;0.70;;;29.10;78.20;;;;;;4926014;29;20032;-80
2022/03/11 02:03:49;;;;;;;2.08;0.40;;;29.20;78.80;;;;;;4926631;28;20036;-76
2022/03/11 02:06:17;;;;;;;1.98;0.38;;;29.00;77.40;;;;;;4927298;28;20533;-77
2022/03/11 02:08:46;;;;;;;2.00;0.50;;;29.30;80.10;;;;;;4926973;29;20047;-78
2022/03/11 02:11:14;;;;;;;1.98;0.30;;;29.90;79.80;;;;;;4927831;28;20024;-80
2022/03/11 02:13:49;;;;;;;3.17;0.73;;;30.60;81.30;;;;;;4926368;29;20031;-83
2022/03/11 02:16:18;;;;;;;3.25;0.52;;;31.00;78.60;;;;;;4930423;29;20027;-76
2022/03/11 02:18:46;;;;;;;4.75;0.70;;;31.30;78.20;;;;;;4930190;29;20032;-77
2022/03/11 02:21:16;;;;;;;1.08;0.30;;;31.40;74.30;;;;;;4927657;29;20032;-81
2022/03/11 02:23:52;;;;;;;1.63;0.40;;;31.20;74.70;;;;;;4926657;28;20043;-84
2022/03/11 02:26:22;;;;;;;1.35;0.40;;;31.10;75.10;;;;;;4925852;29;20024;-83
2022/03/11 02:28:51;;;;;;;7.75;0.70;;;31.10;76.10;;;;;;4925917;28;20262;-83
2022/03/11 02:31:20;;;;;;;1.25;0.45;;;31.40;77.50;;;;;;4923247;29;20098;-82
2022/03/11 02:33:48;;;;;;;1.42;0.98;;;31.50;77.20;;;;;;4923494;28;20118;-79
2022/03/11 02:36:16;;;;;;;1.98;0.45;;;31.30;75.20;;;;;;4925170;29;21833;-79
2022/03/11 02:38:43;;;;;;;4.15;0.43;;;31.40;77.50;;;;;;4926551;28;20691;-77
2022/03/11 02:41:11;;;;;;;3.80;0.82;;;31.60;75.80;;;;;;4930572;28;20051;-78
2022/03/11 02:43:41;;;;;;;4.93;0.60;;;31.00;74.40;;;;;;4927812;28;20055;-75
2022/03/11 02:46:10;;;;;;;3.83;0.68;;;31.20;76.20;;;;;;4927262;29;20112;-82
2022/03/11 02:48:38;;;;;;;4.88;0.77;;;31.60;74.80;;;;;;4927325;29;20051;-84
2022/03/11 02:51:05;;;;;;;2.72;0.40;;;31.40;73.20;;;;;;4928647;29;20162;-78
2022/03/11 02:53:37;;;;;;;3.40;0.40;;;30.80;73.60;;;;;;4926589;29;20063;-80
2022/03/11 02:56:05;;;;;;;2.55;0.50;;;30.90;75.00;;;;;;4926090;28;20466;-80
2022/03/11 02:58:33;;;;;;;4.90;1.20;;;30.40;75.50;;;;;;4924275;29;20032;-80
2022/03/11 03:01:04;;;;;;;1.90;0.90;;;29.40;77.40;;;;;;4925027;29;20020;-81
2022/03/11 03:03:31;;;;;;;3.05;0.65;;;29.10;78.70;;;;;;4926691;29;20051;-82
2022/03/11 03:05:59;;;;;;;3.42;0.55;;;28.60;77.10;;;;;;4928300;29;20305;-81
2022/03/11 03:08:26;;;;;;;2.42;0.73;;;28.00;77.60;;;;;;4923249;28;20042;-82
2022/03/11 03:10:53;;;;;;;3.03;0.50;;;28.30;79.10;;;;;;4925172;29;20019;-82
2022/03/11 03:13:21;;;;;;;1.85;0.70;;;29.30;79.50;;;;;;4924657;29;20032;-81
2022/03/11 03:15:48;;;;;;;3.72;0.40;;;30.10;77.90;;;;;;4921520;28;20032;-81
2022/03/11 03:18:16;;;;;;;1.95;0.60;;;30.80;76.60;;;;;;4923369;29;20036;-78
2022/03/11 03:20:44;;;;;;;1.65;0.50;;;31.30;78.20;;;;;;4927751;29;20444;-81
2022/03/11 03:23:11;;;;;;;4.00;0.70;;;31.40;75.90;;;;;;4925902;29;20043;-82
2022/03/11 03:25:39;;;;;;;4.88;0.57;;;31.40;76.00;;;;;;4924120;29;20028;-83
2022/03/11 03:28:06;;;;;;;3.88;0.40;;;31.00;73.60;;;;;;4926717;29;20519;-87
2022/03/11 03:30:34;;;;;;;1.88;0.80;;;30.70;76.60;;;;;;4922432;29;20590;-76
2022/03/11 03:33:01;;;;;;;2.55;0.50;;;30.20;76.30;;;;;;4923597;29;20051;-76
2022/03/11 03:35:29;;;;;;;3.63;0.60;;;29.60;77.40;;;;;;4924408;29;20053;-81
2022/03/11 03:37:56;;;;;;;5.03;0.70;;;29.00;79.10;;;;;;4924894;29;22139;-80
2022/03/11 03:40:23;;;;;;;3.35;0.70;;;28.60;80.30;;;;;;4923841;28;20031;-80
2022/03/11 03:42:51;;;;;;;3.92;0.55;;;28.90;78.50;;;;;;4922863;29;20094;-78
2022/03/11 03:45:18;;;;;;;3.13;0.55;;;29.10;78.00;;;;;;4925610;29;20044;-85
2022/03/11 03:47:46;;;;;;;5.97;0.90;;;28.90;79.30;;;;;;4925490;29;20371;-79
2022/03/11 03:50:14;;;;;;;2.22;0.80;;;29.10;79.90;;;;;;4912486;29;20043;-76
2022/03/11 03:52:43;;;;;;;3.33;1.00;;;29.50;81.30;;;;;;4923845;28;20086;-81
2022/03/11 03:55:11;;;;;;;2.33;0.60;;;29.90;77.80;;;;;;4923968;29;20075;-80
2022/03/11 03:57:39;;;;;;;2.13;0.43;;;29.60;78.70;;;;;;4924228;28;20062;-78
2022/03/11 04:00:08;;;;;;;6.25;1.05;;;29.80;77.50;;;;;;4923897;28;20131;-80
2022/03/11 04:02:37;;;;;;;3.45;1.13;;;30.00;79.30;;;;;;4925034;29;20032;-81
2022/03/11 04:05:05;;;;;;;4.93;0.50;;;30.20;77.50;;;;;;4923998;29;20039;-81
2022/03/11 04:07:32;;;;;;;1.27;0.55;;;29.70;77.90;;;;;;4922868;29;20024;-81
2022/03/11 04:10:00;;;;;;;4.93;0.75;;;29.60;78.90;;;;;;4923838;29;20114;-81
2022/03/11 04:12:27;;;;;;;2.30;0.60;;;29.20;79.50;;;;;;4924687;29;20129;-82
2022/03/11 04:14:54;;;;;;;3.50;1.13;;;29.40;78.90;;;;;;4924730;29;20028;-80
2022/03/11 04:17:22;;;;;;;6.10;0.70;;;29.60;78.50;;;;;;4924547;28;20164;-80
2022/03/11 04:19:49;;;;;;;3.05;0.90;;;29.70;77.80;;;;;;4924333;28;20031;-80
2022/03/11 04:22:17;;;;;;;6.47;1.42;;;29.50;78.40;;;;;;4924980;29;20047;-77
2022/03/11 04:24:44;;;;;;;0.73;0.30;;;29.00;78.70;;;;;;4923955;29;20043;-83
2022/03/11 04:27:12;;;;;;;1.92;0.40;;;28.70;79.20;;;;;;4923588;29;20028;-78
2022/03/11 04:29:39;;;;;;;2.17;1.20;;;28.50;79.90;;;;;;4923047;29;20035;-79
2022/03/11 04:32:07;;;;;;;3.95;0.47;;;28.60;80.20;;;;;;4924999;29;20135;-79
2022/03/11 04:34:34;;;;;;;3.67;0.95;;;29.00;81.00;;;;;;4921279;29;20058;-82
2022/03/11 04:37:01;;;;;;;4.63;0.93;;;29.40;79.70;;;;;;4927776;29;20039;-79
2022/03/11 04:39:29;;;;;;;1.88;0.63;;;29.60;79.70;;;;;;4923864;29;22202;-81
2022/03/11 04:41:57;;;;;;;4.22;0.70;;;29.70;79.30;;;;;;4937711;28;20027;-78
2022/03/11 04:44:24;;;;;;;3.65;0.70;;;29.80;78.80;;;;;;4923137;29;20052;-78
2022/03/11 04:46:52;;;;;;;4.35;0.90;;;29.90;78.20;;;;;;4924568;29;20038;-83
2022/03/11 04:49:19;;;;;;;3.15;1.52;;;29.30;78.30;;;;;;4921914;28;20047;-83
2022/03/11 04:51:46;;;;;;;3.35;0.65;;;29.10;77.40;;;;;;4925505;28;20051;-79
2022/03/11 04:54:14;;;;;;;2.80;0.50;;;28.70;77.90;;;;;;4923852;29;20028;-79
2022/03/11 04:56:41;;;;;;;1.92;0.50;;;28.70;80.10;;;;;;4921157;29;20217;-79
2022/03/11 04:59:08;;;;;;;2.63;0.52;;;28.70;80.30;;;;;;4920362;29;20039;-80
2022/03/11 05:01:36;;;;;;;3.92;1.40;;;29.00;80.20;;;;;;4921644;29;20028;-76
2022/03/11 05:04:03;;;;;;;4.18;1.25;;;29.30;79.60;;;;;;4922878;29;20040;-76
2022/03/11 05:06:31;;;;;;;3.10;0.70;;;29.50;79.00;;;;;;4923678;29;20038;-76
2022/03/11 05:08:58;;;;;;;1.65;0.57;;;29.70;78.30;;;;;;4922645;29;20031;-78
2022/03/11 05:11:25;;;;;;;1.70;0.50;;;29.60;76.80;;;;;;4923992;29;20028;-79
2022/03/11 05:13:52;;;;;;;2.72;0.73;;;29.40;79.60;;;;;;4924781;29;20032;-78
2022/03/11 05:16:20;;;;;;;4.85;0.60;;;29.40;80.00;;;;;;4917476;29;20083;-79
2022/03/11 05:18:47;;;;;;;6.32;0.57;;;29.40;80.00;;;;;;4919675;29;20466;-80
2022/03/11 05:21:15;;;;;;;4.10;0.38;;;29.20;79.50;;;;;;4931023;28;20039;-78
2022/03/11 05:23:50;;;;;;;3.13;0.60;;;28.60;80.60;;;;;;4929748;29;20538;-81
2022/03/11 05:26:28;;;;;;;2.63;0.60;;;27.90;82.00;;;;;;4931274;29;20031;-79
2022/03/11 05:28:58;;;;;;;2.88;0.80;;;27.60;82.40;;;;;;4930618;28;20095;-76
2022/03/11 05:31:27;;;;;;;2.35;0.52;;;27.50;83.00;;;;;;4925198;29;20032;-82
2022/03/11 05:33:55;;;;;;;2.70;0.68;;;27.50;83.50;;;;;;4924056;29;20032;-81
2022/03/11 05:36:23;;;;;;;2.88;0.43;;;27.80;83.30;;;;;;4923139;28;20432;-77
2022/03/11 05:38:50;;;;;;;3.70;0.50;;;27.90;82.70;;;;;;4926783;29;20039;-77
2022/03/11 05:41:18;;;;;;;1.58;0.50;;;27.80;82.10;;;;;;4926862;29;20146;-79
2022/03/11 05:43:45;;;;;;;4.82;0.57;;;27.90;82.80;;;;;;4928712;29;20071;-85
2022/03/11 05:46:13;;;;;;;4.40;0.88;;;27.70;83.00;;;;;;4929269;28;20035;-79
2022/03/11 05:48:40;;;;;;;4.45;0.38;;;27.70;83.20;;;;;;4926663;29;20031;-79
2022/03/11 05:51:08;;;;;;;1.23;0.40;;;27.60;83.70;;;;;;4928666;29;20082;-83
2022/03/11 05:53:35;;;;;;;4.20;0.50;;;27.60;84.20;;;;;;4927685;29;20462;-83
2022/03/11 05:56:03;;;;;;;3.70;0.73;;;27.40;84.80;;;;;;4929402;29;20028;-79
2022/03/11 05:58:30;;;;;;;1.63;0.40;;;27.20;85.40;;;;;;4925600;28;20042;-80
2022/03/11 06:00:57;;;;;;;1.80;0.35;;;26.90;85.40;;;;;;4925722;29;20174;-78
2022/03/11 06:03:25;;;;;;;3.72;0.50;;;26.60;85.40;;;;;;4929007;29;20478;-81
2022/03/11 06:05:52;;;;;;;2.42;0.40;;;26.10;86.50;;;;;;4925513;29;20028;-78
2022/03/11 06:08:19;;;;;;;4.07;0.40;;;26.20;86.80;;;;;;4920791;29;20067;-77
2022/03/11 06:10:47;;;;;;;1.52;0.32;;;26.40;86.50;;;;;;4921176;29;20534;-78
2022/03/11 06:13:14;;;;;;;6.07;1.40;;;26.30;87.20;;;;;;4923467;29;20038;-77
2022/03/11 06:15:43;;;;;;;2.95;0.43;;;26.20;87.00;;;;;;4923476;29;20072;-77
2022/03/11 06:18:13;;;;;;;0.95;0.40;;;26.10;86.90;;;;;;4923576;29;20039;-77
2022/03/11 06:20:40;;;;;;;4.13;1.10;;;26.10;87.70;;;;;;4922799;29;20087;-77
2022/03/11 06:23:08;;;;;;;5.80;0.47;;;25.90;87.40;;;;;;4924881;29;20078;-77
2022/03/11 06:25:35;;;;;;;1.63;0.30;;;25.90;87.60;;;;;;4926530;28;20036;-77
2022/03/11 06:28:03;;;;;;;1.20;0.40;;;25.80;88.40;;;;;;4924794;29;20035;-75
2022/03/11 06:30:30;;;;;;;2.70;0.60;;;25.70;88.70;;;;;;4923635;29;20030;-78
2022/03/11 06:32:58;;;;;;;2.13;0.57;;;25.60;89.40;;;;;;4925805;29;20039;-76
2022/03/11 06:35:25;;;;;;;2.08;0.65;;;25.50;89.90;;;;;;4925704;28;20031;-76
2022/03/11 06:37:54;;;;;;;2.80;1.25;;;25.40;90.00;;;;;;4925992;29;20036;-75
2022/03/11 06:40:22;;;;;;;0.77;0.43;;;25.30;90.20;;;;;;4923519;29;20036;-75
2022/03/11 06:42:50;;;;;;;1.65;0.35;;;25.30;90.30;;;;;;4924757;29;20050;-77
2022/03/11 06:45:18;;;;;;;1.65;0.30;;;25.30;90.50;;;;;;4924942;29;20517;-76
2022/03/11 06:47:46;;;;;;;2.15;0.50;;;25.40;90.60;;;;;;4930615;29;20062;-76
2022/03/11 06:50:15;;;;;;;2.80;0.60;;;25.60;90.60;;;;;;4932082;29;20024;-76
2022/03/11 06:52:43;;;;;;;3.92;0.55;;;25.70;90.40;;;;;;4927099;28;20047;-76
2022/03/11 06:55:11;;;;;;;5.07;1.98;;;25.40;90.70;;;;;;4926348;29;20040;-76
2022/03/11 06:57:38;;;;;;;2.28;0.30;;;25.20;90.80;;;;;;4925355;29;20035;-76
2022/03/11 07:00:07;;;;;;;5.07;1.10;;;24.90;91.00;;;;;;4926122;29;20521;-76
2022/03/11 07:02:36;;;;;;;13.30;2.58;;;24.60;91.30;;;;;;4927268;29;20039;-76
2022/03/11 07:05:08;;;;;;;4.70;0.40;;;24.40;91.60;;;;;;4925603;28;20910;-76
2022/03/11 07:07:35;;;;;;;1.13;0.38;;;24.20;91.70;;;;;;4925523;29;20198;-75
2022/03/11 07:10:04;;;;;;;3.80;0.77;;;24.20;91.90;;;;;;4925590;29;20036;-76
2022/03/11 07:12:32;;;;;;;2.22;0.40;;;24.00;92.00;;;;;;4924227;29;20027;-75
2022/03/11 07:15:05;;;;;;;3.20;0.75;;;24.00;92.10;;;;;;4925353;28;20046;-76
2022/03/11 07:17:33;;;;;;;2.60;0.40;;;24.00;92.10;;;;;;4924705;29;20490;-76
2022/03/11 07:20:00;;;;;;;2.67;0.85;;;24.00;92.20;;;;;;4927343;29;20043;-77
2022/03/11 07:22:28;;;;;;;3.47;0.95;;;23.90;92.20;;;;;;4926361;29;20031;-77
2022/03/11 07:24:55;;;;;;;6.05;0.50;;;23.90;92.20;;;;;;4926364;29;20048;-76
2022/03/11 07:27:24;;;;;;;4.32;0.88;;;23.70;92.60;;;;;;4926843;29;20032;-76
2022/03/11 07:29:51;;;;;;;9.65;1.40;;;23.70;92.70;;;;;;4924394;29;20162;-76
2022/03/11 07:32:19;;;;;;;2.70;1.30;;;23.60;92.90;;;;;;4925447;29;20036;-75
2022/03/11 07:34:46;;;;;;;3.47;0.90;;;23.70;93.00;;;;;;4924569;29;20085;-76
2022/03/11 07:37:14;;;;;;;2.63;0.50;;;23.80;93.00;;;;;;4926777;29;20027;-76
2022/03/11 07:39:42;;;;;;;2.58;0.60;;;23.70;93.00;;;;;;4924688;28;20040;-78
2022/03/11 07:42:09;;;;;;;4.05;0.90;;;23.70;93.20;;;;;;4926193;28;20470;-78
2022/03/11 07:44:37;;;;;;;5.50;1.67;;;23.70;93.30;;;;;;4924910;29;20044;-76
2022/03/11 07:47:04;;;;;;;3.75;0.32;;;23.60;93.50;;;;;;4925079;29;20020;-76
2022/03/11 07:49:32;;;;;;;5.05;0.68;;;23.60;93.70;;;;;;4923800;29;20082;-76
2022/03/11 07:51:59;;;;;;;1.33;0.20;;;23.60;93.70;;;;;;4925861;29;20024;-76
2022/03/11 07:54:26;;;;;;;1.75;0.50;;;23.60;93.70;;;;;;4924940;28;20040;-75
2022/03/11 07:56:54;;;;;;;5.18;0.30;;;23.50;93.90;;;;;;4926068;29;20119;-78
2022/03/11 07:59:21;;;;;;;2.80;0.95;;;23.50;94.00;;;;;;4924277;29;20035;-76
2022/03/11 08:01:49;;;;;;;3.92;0.43;;;23.50;94.00;;;;;;4930190;28;20129;-77
2022/03/11 08:04:17;;;;;;;2.28;0.30;;;23.40;94.30;;;;;;4927915;29;20483;-76
2022/03/11 08:06:45;;;;;;;1.85;0.43;;;23.40;94.30;;;;;;4925484;29;20493;-77
2022/03/11 08:09:12;;;;;;;2.00;0.30;;;23.50;94.40;;;;;;4922390;28;20035;-77
2022/03/11 08:11:40;;;;;;;2.28;0.30;;;23.50;94.50;;;;;;4925795;29;20038;-77
2022/03/11 08:14:07;;;;;;;7.60;0.73;;;23.30;94.90;;;;;;4924461;29;20031;-77
2022/03/11 08:16:34;;;;;;;2.00;0.35;;;23.30;94.60;;;;;;4925335;29;20038;-76
2022/03/11 08:19:02;;;;;;;4.47;0.63;;;23.30;94.80;;;;;;4923859;29;20035;-77
2022/03/11 08:21:29;;;;;;;1.75;0.47;;;23.30;94.80;;;;;;4924678;29;20470;-75
2022/03/11 08:23:56;;;;;;;5.35;0.50;;;23.20;95.00;;;;;;4924256;29;20043;-75
2022/03/11 08:26:26;;;;;;;2.85;0.47;;;23.00;95.30;;;;;;4924500;28;20032;-75
2022/03/11 08:28:53;;;;;;;4.15;0.45;;;22.90;95.50;;;;;;4923554;29;20042;-75
2022/03/11 08:31:21;;;;;;;2.97;0.40;;;22.90;95.60;;;;;;4922422;29;20486;-75
2022/03/11 08:33:48;;;;;;;4.13;0.93;;;22.80;95.60;;;;;;4923113;29;20038;-75
2022/03/11 08:36:16;;;;;;;1.65;0.32;;;22.80;95.70;;;;;;4922824;29;20027;-76
2022/03/11 08:38:43;;;;;;;3.25;0.80;;;22.70;95.70;;;;;;4924115;29;20039;-75
2022/03/11 08:41:11;;;;;;;1.65;0.60;;;22.60;95.80;;;;;;4924165;28;20032;-75
2022/03/11 08:43:40;;;;;;;6.63;1.33;;;22.60;96.00;;;;;;4924454;29;20064;-75
2022/03/11 08:46:09;;;;;;;6.93;0.60;;;22.60;96.00;;;;;;4923423;28;20028;-77
2022/03/11 08:48:37;;;;;;;4.53;0.40;;;22.60;96.00;;;;;;4922374;29;20031;-76
2022/03/11 08:51:06;;;;;;;3.60;1.38;;;22.70;95.80;;;;;;4923238;29;20455;-73
2022/03/11 08:53:33;;;;;;;2.05;0.40;;;22.70;95.80;;;;;;4924568;29;20040;-77
2022/03/11 08:56:01;;;;;;;3.38;0.68;;;22.50;96.10;;;;;;4925013;29;20035;-77
2022/03/11 08:58:28;;;;;;;3.67;1.05;;;22.40;96.20;;;;;;4924593;29;20372;-76
2022/03/11 09:00:55;;;;;;;3.33;0.50;;;22.30;96.60;;;;;;4922960;29;20038;-76
2022/03/11 09:03:23;;;;;;;6.20;0.52;;;22.30;96.60;;;;;;4926481;28;20170;-75
2022/03/11 09:05:51;;;;;;;5.05;0.80;;;22.40;96.60;;;;;;4923639;29;20395;-76
2022/03/11 09:08:18;;;;;;;5.70;0.40;;;22.30;96.60;;;;;;4923771;29;20030;-76
2022/03/11 09:10:45;;;;;;;5.65;0.63;;;22.20;96.80;;;;;;4922456;29;20039;-75
2022/03/11 09:13:13;;;;;;;3.10;0.52;;;22.30;96.60;;;;;;4924241;29;20036;-75
2022/03/11 09:15:40;;;;;;;3.13;0.73;;;22.40;96.70;;;;;;4928236;29;20118;-74
2022/03/11 09:18:08;;;;;;;2.25;0.52;;;22.40;96.70;;;;;;4927293;29;20027;-74
2022/03/11 09:20:36;;;;;;;1.17;0.30;;;22.40;96.70;;;;;;4926140;29;20042;-75
2022/03/11 09:23:03;;;;;;;2.53;0.20;;;22.50;96.60;;;;;;4925098;29;20458;-74
2022/03/11 09:25:34;;;;;;;1.15;0.30;;;22.60;96.30;;;;;;4926803;29;20150;-74
2022/03/11 09:28:05;;;;;;;3.35;0.50;;;22.60;96.40;;;;;;4927382;29;20042;-74
2022/03/11 09:30:33;;;;;;;4.85;1.20;;;22.60;96.40;;;;;;4925772;29;20047;-75
2022/03/11 09:33:00;;;;;;;2.22;0.30;;;22.60;96.20;;;;;;4927771;29;20028;-75
2022/03/11 09:35:28;;;;;;;2.97;0.32;;;22.60;96.20;;;;;;4941841;28;20518;-76
2022/03/11 09:37:55;;;;;;;3.38;0.40;;;22.60;96.40;;;;;;4927053;29;20032;-75
2022/03/11 09:40:23;;;;;;;2.92;0.47;;;22.60;96.30;;;;;;4928570;29;20043;-75
2022/03/11 09:42:51;;;;;;;4.57;0.70;;;22.50;96.70;;;;;;4926600;29;20207;-75
2022/03/11 09:45:23;;;;;;;0.75;0.20;;;22.40;96.80;;;;;;4927180;29;20482;-75
2022/03/11 09:47:51;;;;;;;1.42;0.52;;;22.40;96.60;;;;;;4927467;29;20032;-75
2022/03/11 09:50:19;;;;;;;5.80;0.52;;;22.50;96.50;;;;;;4927846;29;20450;-75
2022/03/11 09:52:49;;;;;;;7.70;0.52;;;22.50;96.50;;;;;;4932637;29;20031;-74
2022/03/11 09:55:17;;;;;;;6.32;0.43;;;22.50;96.50;;;;;;4927263;29;20030;-74
2022/03/11 09:57:44;;;;;;;2.03;0.80;;;22.40;96.50;;;;;;4926204;29;20079;-75
2022/03/11 10:00:12;;;;;;;5.30;0.50;;;22.40;96.50;;;;;;4927206;29;22113;-75
2022/03/11 10:02:46;;;;;;;2.78;0.50;;;22.30;96.80;;;;;;4927529;29;20055;-75
2022/03/11 10:05:14;;;;;;;6.70;0.52;;;22.30;96.90;;;;;;4927135;29;20103;-74
2022/03/11 10:07:42;;;;;;;4.65;0.82;;;22.20;97.00;;;;;;4926260;29;20076;-74
2022/03/11 10:10:19;;;;;;;3.78;0.90;;;22.20;96.90;;;;;;4926273;29;20047;-74
2022/03/11 10:12:47;;;;;;;8.02;1.05;;;22.10;97.00;;;;;;4927949;29;20119;-74
2022/03/11 10:15:17;;;;;;;6.93;0.60;;;22.00;97.20;;;;;;4927712;29;20064;-75
2022/03/11 10:17:45;;;;;;;5.78;0.60;;;22.00;97.30;;;;;;4924444;29;20035;-76
2022/03/11 10:20:17;;;;;;;2.72;0.57;;;22.00;97.50;;;;;;4929296;29;20036;-77
2022/03/11 10:22:45;;;;;;;4.63;0.50;;;21.90;97.70;;;;;;4929277;28;20066;-78
2022/03/11 10:25:16;;;;;;;10.45;0.98;;;21.70;98.00;;;;;;4933565;29;20036;-77
2022/03/11 10:28:09;;;;;;;6.05;0.77;;;21.50;98.50;;;;;;4925249;29;20028;-78
2022/03/11 10:30:41;;;;;;;7.35;1.15;;;21.40;98.80;;;;;;4925763;29;20103;-78
2022/03/11 10:33:12;;;;;;;3.10;0.63;;;21.30;99.10;;;;;;4932151;29;20165;-77
2022/03/11 10:35:47;;;;;;;1.65;0.50;;;21.20;99.40;;;;;;4934437;29;20501;-76
2022/03/11 10:38:17;;;;;;;5.83;1.10;;;21.10;99.50;;;;;;4931580;28;20040;-78
2022/03/11 10:40:55;;;;;;;5.35;1.17;;;21.10;99.70;;;;;;4931689;29;20063;-78
2022/03/11 10:43:26;;;;;;;11.90;1.17;;;21.10;99.80;;;;;;4932265;29;20107;-77
2022/03/11 10:46:01;;;;;;;5.45;0.70;;;21.10;99.80;;;;;;4932974;29;20031;-77
2022/03/11 10:48:49;;;;;;;8.20;0.60;;;21.10;99.80;;;;;;4934876;29;20561;-77
2022/03/11 10:51:31;;;;;;;4.68;0.60;;;21.10;99.90;;;;;;4932258;29;20475;-79
2022/03/11 10:54:03;;;;;;;2.72;0.35;;;21.10;99.70;;;;;;4933851;29;20024;-78
2022/03/11 10:56:36;;;;;;;6.53;0.60;;;21.20;99.60;;;;;;4934518;29;20043;-78
2022/03/11 10:59:18;;;;;;;2.22;0.40;;;21.20;99.80;;;;;;4936476;29;20126;-77
2022/03/11 11:01:46;;;;;;;6.43;1.20;;;21.20;99.70;;;;;;4932136;29;20036;-78
2022/03/11 11:04:16;;;;;;;5.32;0.85;;;21.20;99.90;;;;;;4927950;28;20043;-76
2022/03/11 11:06:45;;;;;;;4.47;0.70;;;21.20;99.80;;;;;;4925804;28;20031;-77
2022/03/11 11:09:14;;;;;;;1.58;0.43;;;21.20;99.90;;;;;;4923744;29;20041;-77
2022/03/11 11:11:45;;;;;;;4.57;0.40;;;21.10;99.90;;;;;;4922561;29;20534;-76
2022/03/11 11:14:13;;;;;;;4.90;0.38;;;21.10;99.90;;;;;;4923102;29;20061;-78
2022/03/11 11:16:45;;;;;;;4.25;0.90;;;21.10;99.90;;;;;;4925886;29;20031;-76
2022/03/11 11:19:17;;;;;;;5.47;1.02;;;21.10;99.90;;;;;;4925454;29;20055;-77
2022/03/11 11:21:50;;;;;;;4.47;0.40;;;21.00;99.90;;;;;;4927573;29;20332;-77
2022/03/11 11:24:23;;;;;;;2.35;0.45;;;20.90;99.90;;;;;;4924401;29;20137;-78
2022/03/11 11:26:56;;;;;;;8.10;0.88;;;20.90;99.90;;;;;;4924964;29;20078;-77
2022/03/11 11:29:28;;;;;;;4.72;0.50;;;20.90;99.90;;;;;;4922895;29;20655;-76
2022/03/11 11:31:57;;;;;;;2.45;0.80;;;20.90;99.90;;;;;;4921853;28;20027;-77
2022/03/11 11:34:33;;;;;;;2.40;0.60;;;20.90;99.90;;;;;;4928603;29;20028;-76
2022/03/11 11:37:01;;;;;;;0.80;0.32;;;20.90;99.90;;;;;;4930946;29;20075;-77
2022/03/11 11:39:36;;;;;;;2.72;0.52;;;20.90;99.90;;;;;;4932594;29;20042;-77
2022/03/11 11:42:12;;;;;;;2.22;0.60;;;20.80;99.90;;;;;;4933714;28;20050;-76
2022/03/11 11:44:39;;;;;;;;;;;20.80;99.90;;;;;;4922549;29;20063;-78
2022/03/11 11:47:13;;;;;;;3.47;0.60;;;20.70;99.90;;;;;;4930874;29;19918;-76
2022/03/11 11:49:56;;;;;;;1.10;0.43;;;20.70;99.90;;;;;;4931422;29;20032;-76
2022/03/11 11:52:38;;;;;;;4.75;0.50;;;20.60;99.90;;;;;;4932826;29;20040;-75
2022/03/11 11:55:17;;;;;;;4.53;0.70;;;20.60;99.90;;;;;;4931205;29;20443;-76
2022/03/11 11:57:46;;;;;;;5.28;0.60;;;20.60;99.90;;;;;;4931343;29;20117;-77
2022/03/11 12:00:33;;;;;;;2.55;0.52;;;20.60;99.90;;;;;;4933115;29;20032;-76
2022/03/11 12:03:00;;;;;;;3.50;0.93;;;20.50;99.90;;;;;;4925675;29;20494;-76
2022/03/11 12:05:45;;;;;;;1.85;0.47;;;20.50;99.90;;;;;;4932270;29;20032;-76
2022/03/11 12:08:37;;;;;;;1.65;0.50;;;20.50;99.90;;;;;;4931943;29;20107;-75
2022/03/11 12:11:05;;;;;;;3.10;0.70;;;20.50;99.90;;;;;;4931097;29;20379;-76
2022/03/11 12:13:33;;;;;;;3.47;0.50;;;20.50;99.90;;;;;;4932538;29;20571;-77
2022/03/11 12:16:02;;;;;;;1.88;0.50;;;20.50;99.90;;;;;;4931716;29;20046;-75
2022/03/11 12:18:36;;;;;;;2.42;0.40;;;20.50;99.90;;;;;;4933007;29;20035;-76
2022/03/11 12:21:04;;;;;;;1.40;0.43;;;20.40;99.90;;;;;;4931261;29;20122;-76
2022/03/11 12:23:33;;;;;;;4.00;0.50;;;20.40;99.90;;;;;;4931848;29;20036;-76
2022/03/11 12:26:09;;;;;;;2.08;0.60;;;20.30;99.90;;;;;;4931038;28;20042;-76
2022/03/11 12:28:42;;;;;;;1.58;0.57;;;20.30;99.90;;;;;;4931001;29;20547;-76
2022/03/11 12:31:13;;;;;;;2.63;1.05;;;20.30;99.90;;;;;;4926263;29;20364;-76
2022/03/11 12:33:48;;;;;;;2.10;0.82;;;20.30;99.90;;;;;;4932812;28;20036;-77
2022/03/11 12:36:18;;;;;;;0.63;0.40;;;20.20;99.90;;;;;;4930972;29;20111;-78
2022/03/11 12:38:47;;;;;;;1.17;0.50;;;20.10;99.90;;;;;;4932020;28;20043;-77
2022/03/11 12:41:22;;;;;;;4.38;0.98;;;20.10;99.90;;;;;;4932150;29;20032;-75
2022/03/11 12:43:49;;;;;;;2.30;0.65;;;20.00;99.90;;;;;;4933311;28;20491;-76
2022/03/11 12:46:17;;;;;;;1.30;0.73;;;19.90;99.90;;;;;;4931170;29;20036;-77
2022/03/11 12:48:45;;;;;;;4.20;0.65;;;19.90;99.90;;;;;;4935847;29;20479;-76
2022/03/11 12:51:18;;;;;;;4.82;0.65;;;19.90;99.90;;;;;;4949181;28;20439;-76
2022/03/11 12:53:47;;;;;;;5.30;0.95;;;19.80;99.90;;;;;;4937074;29;20067;-74
2022/03/11 12:56:15;;;;;;;5.07;0.80;;;19.80;99.90;;;;;;4935017;29;20086;-77